sensor_id;sensor_type;location;lat;lon;timestamp;temperature;humidity
7576;DHT22;3829;50.798;4.358;2023-03-04T00:01:32;6.10;99.90
7576;DHT22;3829;50.798;4.358;2023-03-04T00:03:58;6.00;99.90
7576;DHT22;3829;50.798;4.358;2023-03-04T00:06:24;6.00;99.90
7576;DHT22;3829;50.798;4.358;2023-03-04T00:08:49;6.20;99.90
7576;DHT22;3829;50.798;4.358;2023-03-04T00:11:15;6.10;99.90
7576;DHT22;3829;50.798;4.358;2023-03-04T00:13:41;6.10;99.90
7576;DHT22;3829;50.798;4.358;2023-03-04T00:16:06;6.20;99.90
7576;DHT22;3829;50.798;4.358;2023-03-04T00:18:32;6.20;99.90
7576;DHT22;3829;50.798;4.358;2023-03-04T00:20:57;6.30;99.90
7576;DHT22;3829;50.798;4.358;2023-03-04T00:23:23;6.20;99.90
7576;DHT22;3829;50.798;4.358;2023-03-04T00:25:49;6.20;99.90
7576;DHT22;3829;50.798;4.358;2023-03-04T00:28:14;6.00;99.90
7576;DHT22;3829;50.798;4.358;2023-03-04T00:30:40;5.90;99.90
7576;DHT22;3829;50.798;4.358;2023-03-04T00:33:06;6.00;99.90
7576;DHT22;3829;50.798;4.358;2023-03-04T00:35:31;6.00;99.90
7576;DHT22;3829;50.798;4.358;2023-03-04T00:37:57;6.10;99.90
7576;DHT22;3829;50.798;4.358;2023-03-04T00:40:22;6.10;99.90
7576;DHT22;3829;50.798;4.358;2023-03-04T00:42:48;5.90;99.90
7576;DHT22;3829;50.798;4.358;2023-03-04T00:45:14;6.00;99.90
7576;DHT22;3829;50.798;4.358;2023-03-04T00:47:39;6.00;99.90
7576;DHT22;3829;50.798;4.358;2023-03-04T00:50:05;5.90;99.90
7576;DHT22;3829;50.798;4.358;2023-03-04T00:52:31;6.00;99.90
7576;DHT22;3829;50.798;4.358;2023-03-04T00:54:56;6.10;99.90
7576;DHT22;3829;50.798;4.358;2023-03-04T00:57:22;6.20;99.90
7576;DHT22;3829;50.798;4.358;2023-03-04T00:59:48;6.10;99.90
7576;DHT22;3829;50.798;4.358;2023-03-04T01:02:13;6.10;99.90
7576;DHT22;3829;50.798;4.358;2023-03-04T01:04:39;6.00;99.90
7576;DHT22;3829;50.798;4.358;2023-03-04T01:07:06;6.00;99.90
7576;DHT22;3829;50.798;4.358;2023-03-04T01:09:31;6.10;99.90
7576;DHT22;3829;50.798;4.358;2023-03-04T01:11:57;6.10;99.90
7576;DHT22;3829;50.798;4.358;2023-03-04T01:14:23;6.00;99.90
7576;DHT22;3829;50.798;4.358;2023-03-04T01:16:49;6.00;99.90
7576;DHT22;3829;50.798;4.358;2023-03-04T01:19:15;6.00;99.90
7576;DHT22;3829;50.798;4.358;2023-03-04T01:21:41;6.10;99.90
7576;DHT22;3829;50.798;4.358;2023-03-04T01:24:06;6.20;99.90
7576;DHT22;3829;50.798;4.358;2023-03-04T01:26:33;6.10;99.90
7576;DHT22;3829;50.798;4.358;2023-03-04T01:28:58;6.10;99.90
7576;DHT22;3829;50.798;4.358;2023-03-04T01:31:24;6.10;99.90
7576;DHT22;3829;50.798;4.358;2023-03-04T01:33:49;6.00;99.90
7576;DHT22;3829;50.798;4.358;2023-03-04T01:36:15;6.00;99.90
7576;DHT22;3829;50.798;4.358;2023-03-04T01:38:41;6.00;99.90
7576;DHT22;3829;50.798;4.358;2023-03-04T01:41:06;6.10;99.90
7576;DHT22;3829;50.798;4.358;2023-03-04T01:43:34;6.10;99.90
7576;DHT22;3829;50.798;4.358;2023-03-04T01:46:00;6.10;99.90
7576;DHT22;3829;50.798;4.358;2023-03-04T01:48:29;6.00;99.90
7576;DHT22;3829;50.798;4.358;2023-03-04T01:50:56;6.00;99.90
7576;DHT22;3829;50.798;4.358;2023-03-04T01:53:25;6.10;99.90
7576;DHT22;3829;50.798;4.358;2023-03-04T01:55:56;6.00;99.90
7576;DHT22;3829;50.798;4.358;2023-03-04T01:58:29;6.10;99.90
7576;DHT22;3829;50.798;4.358;2023-03-04T02:00:55;6.10;99.90
7576;DHT22;3829;50.798;4.358;2023-03-04T02:03:21;6.00;99.90
7576;DHT22;3829;50.798;4.358;2023-03-04T02:05:48;6.00;99.90
7576;DHT22;3829;50.798;4.358;2023-03-04T02:08:17;6.00;99.90
7576;DHT22;3829;50.798;4.358;2023-03-04T02:10:43;6.10;99.90
7576;DHT22;3829;50.798;4.358;2023-03-04T02:13:10;6.10;99.90
7576;DHT22;3829;50.798;4.358;2023-03-04T02:15:36;6.30;99.90
7576;DHT22;3829;50.798;4.358;2023-03-04T02:18:13;6.30;99.90
7576;DHT22;3829;50.798;4.358;2023-03-04T02:20:50;6.10;99.90
7576;DHT22;3829;50.798;4.358;2023-03-04T02:23:33;6.10;99.90
7576;DHT22;3829;50.798;4.358;2023-03-04T02:26:27;6.10;99.90
7576;DHT22;3829;50.798;4.358;2023-03-04T02:28:54;6.20;99.90
7576;DHT22;3829;50.798;4.358;2023-03-04T02:33:53;6.40;99.90
7576;DHT22;3829;50.798;4.358;2023-03-04T02:36:21;6.40;99.90
7576;DHT22;3829;50.798;4.358;2023-03-04T02:38:51;6.40;99.90
7576;DHT22;3829;50.798;4.358;2023-03-04T02:41:20;6.40;99.90
7576;DHT22;3829;50.798;4.358;2023-03-04T02:43:50;6.40;99.90
7576;DHT22;3829;50.798;4.358;2023-03-04T02:46:16;6.20;99.90
7576;DHT22;3829;50.798;4.358;2023-03-04T02:48:42;6.20;99.90
7576;DHT22;3829;50.798;4.358;2023-03-04T02:51:08;6.20;99.90
7576;DHT22;3829;50.798;4.358;2023-03-04T02:53:33;6.10;99.90
7576;DHT22;3829;50.798;4.358;2023-03-04T02:55:59;6.20;99.90
7576;DHT22;3829;50.798;4.358;2023-03-04T02:58:25;6.30;99.90
7576;DHT22;3829;50.798;4.358;2023-03-04T03:00:51;6.20;99.90
7576;DHT22;3829;50.798;4.358;2023-03-04T03:03:16;6.40;99.90
7576;DHT22;3829;50.798;4.358;2023-03-04T03:05:42;6.40;99.90
7576;DHT22;3829;50.798;4.358;2023-03-04T03:08:08;6.50;99.90
7576;DHT22;3829;50.798;4.358;2023-03-04T03:10:33;6.40;99.90
7576;DHT22;3829;50.798;4.358;2023-03-04T03:12:59;6.40;99.90
7576;DHT22;3829;50.798;4.358;2023-03-04T03:15:24;6.30;99.90
7576;DHT22;3829;50.798;4.358;2023-03-04T03:17:50;6.50;99.90
7576;DHT22;3829;50.798;4.358;2023-03-04T03:20:17;6.50;99.90
7576;DHT22;3829;50.798;4.358;2023-03-04T03:22:42;6.40;99.90
7576;DHT22;3829;50.798;4.358;2023-03-04T03:25:10;6.50;99.90
7576;DHT22;3829;50.798;4.358;2023-03-04T03:27:36;6.40;99.90
7576;DHT22;3829;50.798;4.358;2023-03-04T03:30:02;6.40;99.90
7576;DHT22;3829;50.798;4.358;2023-03-04T03:32:28;6.40;99.90
7576;DHT22;3829;50.798;4.358;2023-03-04T03:34:53;6.30;99.90
7576;DHT22;3829;50.798;4.358;2023-03-04T03:37:19;6.40;99.90
7576;DHT22;3829;50.798;4.358;2023-03-04T03:39:44;6.40;99.90
7576;DHT22;3829;50.798;4.358;2023-03-04T03:42:10;6.30;99.90
7576;DHT22;3829;50.798;4.358;2023-03-04T03:44:36;6.30;99.90
7576;DHT22;3829;50.798;4.358;2023-03-04T03:47:02;6.30;99.90
7576;DHT22;3829;50.798;4.358;2023-03-04T03:49:27;6.20;99.90
7576;DHT22;3829;50.798;4.358;2023-03-04T03:51:53;6.20;99.90
7576;DHT22;3829;50.798;4.358;2023-03-04T03:54:19;6.30;99.90
7576;DHT22;3829;50.798;4.358;2023-03-04T03:56:45;6.30;99.90
7576;DHT22;3829;50.798;4.358;2023-03-04T03:59:10;6.30;99.90
7576;DHT22;3829;50.798;4.358;2023-03-04T04:01:36;6.40;99.90
7576;DHT22;3829;50.798;4.358;2023-03-04T04:04:02;6.40;99.90
7576;DHT22;3829;50.798;4.358;2023-03-04T04:06:28;6.40;99.90
7576;DHT22;3829;50.798;4.358;2023-03-04T04:08:53;6.40;99.90
7576;DHT22;3829;50.798;4.358;2023-03-04T04:11:19;6.50;99.90
7576;DHT22;3829;50.798;4.358;2023-03-04T04:13:44;6.50;99.90
7576;DHT22;3829;50.798;4.358;2023-03-04T04:16:10;6.50;99.90
7576;DHT22;3829;50.798;4.358;2023-03-04T04:18:36;6.40;99.90
7576;DHT22;3829;50.798;4.358;2023-03-04T04:21:02;6.50;99.90
7576;DHT22;3829;50.798;4.358;2023-03-04T04:23:28;6.50;99.90
7576;DHT22;3829;50.798;4.358;2023-03-04T04:25:55;6.50;99.90
7576;DHT22;3829;50.798;4.358;2023-03-04T04:28:21;6.30;99.90
7576;DHT22;3829;50.798;4.358;2023-03-04T04:30:46;6.30;99.90
7576;DHT22;3829;50.798;4.358;2023-03-04T04:33:12;6.30;99.90
7576;DHT22;3829;50.798;4.358;2023-03-04T04:35:38;6.30;99.90
7576;DHT22;3829;50.798;4.358;2023-03-04T04:38:05;6.30;99.90
7576;DHT22;3829;50.798;4.358;2023-03-04T04:40:30;6.40;99.90
7576;DHT22;3829;50.798;4.358;2023-03-04T04:42:56;6.30;99.90
7576;DHT22;3829;50.798;4.358;2023-03-04T04:45:22;6.30;99.90
7576;DHT22;3829;50.798;4.358;2023-03-04T04:47:53;6.30;99.90
7576;DHT22;3829;50.798;4.358;2023-03-04T04:50:19;6.30;99.90
7576;DHT22;3829;50.798;4.358;2023-03-04T04:52:45;6.30;99.90
7576;DHT22;3829;50.798;4.358;2023-03-04T04:55:11;6.40;99.90
7576;DHT22;3829;50.798;4.358;2023-03-04T04:57:37;6.40;99.90
7576;DHT22;3829;50.798;4.358;2023-03-04T05:00:05;6.40;99.90
7576;DHT22;3829;50.798;4.358;2023-03-04T05:02:31;6.20;99.90
7576;DHT22;3829;50.798;4.358;2023-03-04T05:05:01;6.20;99.90
7576;DHT22;3829;50.798;4.358;2023-03-04T05:07:26;6.30;99.90
7576;DHT22;3829;50.798;4.358;2023-03-04T05:09:52;6.20;99.90
7576;DHT22;3829;50.798;4.358;2023-03-04T05:12:18;6.30;99.90
7576;DHT22;3829;50.798;4.358;2023-03-04T05:14:43;6.30;99.90
7576;DHT22;3829;50.798;4.358;2023-03-04T05:17:09;6.30;99.90
7576;DHT22;3829;50.798;4.358;2023-03-04T05:19:34;6.10;99.90
7576;DHT22;3829;50.798;4.358;2023-03-04T05:22:00;6.10;99.90
7576;DHT22;3829;50.798;4.358;2023-03-04T05:24:25;6.30;99.90
7576;DHT22;3829;50.798;4.358;2023-03-04T05:26:51;6.30;99.90
7576;DHT22;3829;50.798;4.358;2023-03-04T05:29:16;6.40;99.90
7576;DHT22;3829;50.798;4.358;2023-03-04T05:31:43;6.30;99.90
7576;DHT22;3829;50.798;4.358;2023-03-04T05:34:08;6.00;99.90
7576;DHT22;3829;50.798;4.358;2023-03-04T05:36:34;6.10;99.90
7576;DHT22;3829;50.798;4.358;2023-03-04T05:38:59;6.00;99.90
7576;DHT22;3829;50.798;4.358;2023-03-04T05:41:25;6.10;99.90
7576;DHT22;3829;50.798;4.358;2023-03-04T05:43:50;6.10;99.90
7576;DHT22;3829;50.798;4.358;2023-03-04T05:46:17;6.00;99.90
7576;DHT22;3829;50.798;4.358;2023-03-04T05:48:43;6.00;99.90
7576;DHT22;3829;50.798;4.358;2023-03-04T05:51:09;6.00;99.90
7576;DHT22;3829;50.798;4.358;2023-03-04T05:53:35;6.00;99.90
7576;DHT22;3829;50.798;4.358;2023-03-04T05:56:07;6.20;99.90
7576;DHT22;3829;50.798;4.358;2023-03-04T05:58:33;6.10;99.90
7576;DHT22;3829;50.798;4.358;2023-03-04T06:01:02;6.20;99.90
7576;DHT22;3829;50.798;4.358;2023-03-04T06:03:28;6.20;99.90
7576;DHT22;3829;50.798;4.358;2023-03-04T06:05:53;6.30;99.90
7576;DHT22;3829;50.798;4.358;2023-03-04T06:08:19;6.40;99.90
7576;DHT22;3829;50.798;4.358;2023-03-04T06:10:45;6.40;99.90
7576;DHT22;3829;50.798;4.358;2023-03-04T06:13:11;6.50;99.90
7576;DHT22;3829;50.798;4.358;2023-03-04T06:15:38;6.50;99.90
7576;DHT22;3829;50.798;4.358;2023-03-04T06:18:04;6.50;99.90
7576;DHT22;3829;50.798;4.358;2023-03-04T06:20:30;6.50;99.90
7576;DHT22;3829;50.798;4.358;2023-03-04T06:22:56;6.50;99.90
7576;DHT22;3829;50.798;4.358;2023-03-04T06:25:21;6.50;99.90
7576;DHT22;3829;50.798;4.358;2023-03-04T06:27:47;6.40;99.90
7576;DHT22;3829;50.798;4.358;2023-03-04T06:30:13;6.30;99.90
7576;DHT22;3829;50.798;4.358;2023-03-04T06:32:38;6.20;99.90
7576;DHT22;3829;50.798;4.358;2023-03-04T06:35:05;6.20;99.90
7576;DHT22;3829;50.798;4.358;2023-03-04T06:37:31;6.20;99.90
7576;DHT22;3829;50.798;4.358;2023-03-04T06:39:56;6.20;99.90
7576;DHT22;3829;50.798;4.358;2023-03-04T06:42:22;6.20;99.90
7576;DHT22;3829;50.798;4.358;2023-03-04T06:44:48;6.30;99.90
7576;DHT22;3829;50.798;4.358;2023-03-04T06:47:14;6.30;99.90
7576;DHT22;3829;50.798;4.358;2023-03-04T06:49:40;6.30;99.90
7576;DHT22;3829;50.798;4.358;2023-03-04T06:52:05;6.20;99.90
7576;DHT22;3829;50.798;4.358;2023-03-04T06:54:31;6.20;99.90
7576;DHT22;3829;50.798;4.358;2023-03-04T06:56:56;6.20;99.90
7576;DHT22;3829;50.798;4.358;2023-03-04T06:59:22;6.40;99.90
7576;DHT22;3829;50.798;4.358;2023-03-04T07:01:48;6.40;99.90
7576;DHT22;3829;50.798;4.358;2023-03-04T07:04:13;6.40;99.90
7576;DHT22;3829;50.798;4.358;2023-03-04T07:06:39;6.40;99.90
7576;DHT22;3829;50.798;4.358;2023-03-04T07:09:04;6.50;99.90
7576;DHT22;3829;50.798;4.358;2023-03-04T07:11:31;6.30;99.90
7576;DHT22;3829;50.798;4.358;2023-03-04T07:13:57;6.30;99.90
7576;DHT22;3829;50.798;4.358;2023-03-04T07:16:22;6.40;99.90
7576;DHT22;3829;50.798;4.358;2023-03-04T07:18:49;6.30;99.90
7576;DHT22;3829;50.798;4.358;2023-03-04T07:21:16;6.40;99.90
7576;DHT22;3829;50.798;4.358;2023-03-04T07:23:42;6.50;99.90
7576;DHT22;3829;50.798;4.358;2023-03-04T07:26:08;6.50;99.90
7576;DHT22;3829;50.798;4.358;2023-03-04T07:28:35;6.40;99.90
7576;DHT22;3829;50.798;4.358;2023-03-04T07:31:23;6.50;99.90
7576;DHT22;3829;50.798;4.358;2023-03-04T07:33:50;6.60;99.90
7576;DHT22;3829;50.798;4.358;2023-03-04T07:36:16;6.60;99.90
7576;DHT22;3829;50.798;4.358;2023-03-04T07:38:45;6.60;99.90
7576;DHT22;3829;50.798;4.358;2023-03-04T07:41:11;6.50;99.90
7576;DHT22;3829;50.798;4.358;2023-03-04T07:43:37;6.70;99.90
7576;DHT22;3829;50.798;4.358;2023-03-04T07:46:02;6.70;99.90
7576;DHT22;3829;50.798;4.358;2023-03-04T07:48:28;6.70;99.90
7576;DHT22;3829;50.798;4.358;2023-03-04T07:51:17;6.80;99.90
7576;DHT22;3829;50.798;4.358;2023-03-04T07:53:46;6.70;99.90
7576;DHT22;3829;50.798;4.358;2023-03-04T07:56:14;6.60;99.90
7576;DHT22;3829;50.798;4.358;2023-03-04T07:58:40;6.40;99.90
7576;DHT22;3829;50.798;4.358;2023-03-04T08:03:35;6.30;99.90
7576;DHT22;3829;50.798;4.358;2023-03-04T08:06:07;6.50;99.90
7576;DHT22;3829;50.798;4.358;2023-03-04T08:08:33;6.60;99.90
7576;DHT22;3829;50.798;4.358;2023-03-04T08:11:02;6.60;99.90
7576;DHT22;3829;50.798;4.358;2023-03-04T08:13:28;6.70;99.90
7576;DHT22;3829;50.798;4.358;2023-03-04T08:15:55;6.70;99.90
7576;DHT22;3829;50.798;4.358;2023-03-04T08:18:20;6.70;99.90
7576;DHT22;3829;50.798;4.358;2023-03-04T08:20:46;6.60;99.90
7576;DHT22;3829;50.798;4.358;2023-03-04T08:23:11;6.50;99.90
7576;DHT22;3829;50.798;4.358;2023-03-04T08:25:39;6.70;99.90
7576;DHT22;3829;50.798;4.358;2023-03-04T08:28:05;6.80;99.90
7576;DHT22;3829;50.798;4.358;2023-03-04T08:30:31;6.80;99.90
7576;DHT22;3829;50.798;4.358;2023-03-04T08:32:57;6.90;99.90
7576;DHT22;3829;50.798;4.358;2023-03-04T08:35:23;6.90;99.90
7576;DHT22;3829;50.798;4.358;2023-03-04T08:37:48;7.00;99.90
7576;DHT22;3829;50.798;4.358;2023-03-04T08:40:14;7.10;99.90
7576;DHT22;3829;50.798;4.358;2023-03-04T08:42:40;7.10;99.90
7576;DHT22;3829;50.798;4.358;2023-03-04T08:45:07;6.90;99.90
7576;DHT22;3829;50.798;4.358;2023-03-04T08:47:33;7.00;99.90
7576;DHT22;3829;50.798;4.358;2023-03-04T08:49:59;7.00;99.90
7576;DHT22;3829;50.798;4.358;2023-03-04T08:52:24;7.00;99.90
7576;DHT22;3829;50.798;4.358;2023-03-04T08:54:50;6.90;99.90
7576;DHT22;3829;50.798;4.358;2023-03-04T08:57:17;7.00;99.90
7576;DHT22;3829;50.798;4.358;2023-03-04T08:59:42;6.80;99.90
7576;DHT22;3829;50.798;4.358;2023-03-04T09:02:08;6.90;99.90
7576;DHT22;3829;50.798;4.358;2023-03-04T09:04:34;7.10;99.90
7576;DHT22;3829;50.798;4.358;2023-03-04T09:07:01;7.00;99.90
7576;DHT22;3829;50.798;4.358;2023-03-04T09:09:26;6.90;99.90
7576;DHT22;3829;50.798;4.358;2023-03-04T09:11:52;6.80;99.90
7576;DHT22;3829;50.798;4.358;2023-03-04T09:14:17;6.90;99.90
7576;DHT22;3829;50.798;4.358;2023-03-04T09:16:43;6.80;99.90
7576;DHT22;3829;50.798;4.358;2023-03-04T09:19:09;6.60;99.90
7576;DHT22;3829;50.798;4.358;2023-03-04T09:21:35;6.50;99.90
7576;DHT22;3829;50.798;4.358;2023-03-04T09:24:01;6.60;99.90
7576;DHT22;3829;50.798;4.358;2023-03-04T09:26:28;6.60;99.90
7576;DHT22;3829;50.798;4.358;2023-03-04T09:28:55;6.60;99.90
7576;DHT22;3829;50.798;4.358;2023-03-04T09:31:22;6.60;99.90
7576;DHT22;3829;50.798;4.358;2023-03-04T09:33:50;6.60;99.90
7576;DHT22;3829;50.798;4.358;2023-03-04T09:36:16;6.60;99.90
7576;DHT22;3829;50.798;4.358;2023-03-04T09:38:42;6.70;99.90
7576;DHT22;3829;50.798;4.358;2023-03-04T09:41:12;6.70;99.90
7576;DHT22;3829;50.798;4.358;2023-03-04T09:43:40;6.80;99.90
7576;DHT22;3829;50.798;4.358;2023-03-04T09:46:11;6.90;99.90
7576;DHT22;3829;50.798;4.358;2023-03-04T09:48:46;7.20;99.90
7576;DHT22;3829;50.798;4.358;2023-03-04T09:54:10;7.00;99.90
7576;DHT22;3829;50.798;4.358;2023-03-04T09:56:40;6.90;99.90
7576;DHT22;3829;50.798;4.358;2023-03-04T09:59:25;7.00;99.90
7576;DHT22;3829;50.798;4.358;2023-03-04T10:01:57;7.20;99.90
7576;DHT22;3829;50.798;4.358;2023-03-04T10:04:44;7.20;99.90
7576;DHT22;3829;50.798;4.358;2023-03-04T10:07:18;7.30;99.90
7576;DHT22;3829;50.798;4.358;2023-03-04T10:09:48;7.20;99.90
7576;DHT22;3829;50.798;4.358;2023-03-04T10:12:19;7.20;99.90
7576;DHT22;3829;50.798;4.358;2023-03-04T10:15:04;7.20;99.90
7576;DHT22;3829;50.798;4.358;2023-03-04T10:17:41;6.90;99.90
7576;DHT22;3829;50.798;4.358;2023-03-04T10:20:17;7.00;99.90
7576;DHT22;3829;50.798;4.358;2023-03-04T10:22:47;7.20;99.90
7576;DHT22;3829;50.798;4.358;2023-03-04T10:25:25;7.30;99.90
7576;DHT22;3829;50.798;4.358;2023-03-04T10:33:21;7.80;99.90
7576;DHT22;3829;50.798;4.358;2023-03-04T10:35:52;7.90;99.90
7576;DHT22;3829;50.798;4.358;2023-03-04T10:38:21;7.70;99.90
7576;DHT22;3829;50.798;4.358;2023-03-04T10:40:47;7.40;99.90
7576;DHT22;3829;50.798;4.358;2023-03-04T10:43:17;7.40;99.90
7576;DHT22;3829;50.798;4.358;2023-03-04T10:45:44;7.60;99.90
7576;DHT22;3829;50.798;4.358;2023-03-04T10:48:28;7.70;99.90
7576;DHT22;3829;50.798;4.358;2023-03-04T10:51:08;7.60;99.90
7576;DHT22;3829;50.798;4.358;2023-03-04T10:53:40;7.70;99.90
7576;DHT22;3829;50.798;4.358;2023-03-04T10:56:37;7.70;99.90
7576;DHT22;3829;50.798;4.358;2023-03-04T11:01:49;8.20;99.90
7576;DHT22;3829;50.798;4.358;2023-03-04T11:04:19;8.30;99.90
7576;DHT22;3829;50.798;4.358;2023-03-04T11:06:47;8.50;99.90
7576;DHT22;3829;50.798;4.358;2023-03-04T11:09:25;8.60;99.90
7576;DHT22;3829;50.798;4.358;2023-03-04T11:11:53;8.80;99.90
7576;DHT22;3829;50.798;4.358;2023-03-04T11:14:25;8.90;99.90
7576;DHT22;3829;50.798;4.358;2023-03-04T11:17:00;8.80;99.90
7576;DHT22;3829;50.798;4.358;2023-03-04T11:19:38;8.60;99.90
7576;DHT22;3829;50.798;4.358;2023-03-04T11:22:04;8.80;99.90
7576;DHT22;3829;50.798;4.358;2023-03-04T11:24:33;8.90;99.90
7576;DHT22;3829;50.798;4.358;2023-03-04T11:27:03;8.90;99.90
7576;DHT22;3829;50.798;4.358;2023-03-04T11:30:03;9.10;99.90
7576;DHT22;3829;50.798;4.358;2023-03-04T11:32:39;8.90;99.90
7576;DHT22;3829;50.798;4.358;2023-03-04T11:37:49;8.70;99.90
7576;DHT22;3829;50.798;4.358;2023-03-04T11:40:29;8.80;99.90
7576;DHT22;3829;50.798;4.358;2023-03-04T11:43:10;8.70;99.90
7576;DHT22;3829;50.798;4.358;2023-03-04T11:56:46;8.40;99.90
7576;DHT22;3829;50.798;4.358;2023-03-04T12:05:25;8.70;99.90
7576;DHT22;3829;50.798;4.358;2023-03-04T12:08:04;8.80;99.90
7576;DHT22;3829;50.798;4.358;2023-03-04T12:11:19;8.80;99.90
7576;DHT22;3829;50.798;4.358;2023-03-04T12:24:33;9.30;99.90
7576;DHT22;3829;50.798;4.358;2023-03-04T12:27:27;9.30;99.90
7576;DHT22;3829;50.798;4.358;2023-03-04T12:32:45;9.10;99.90
7576;DHT22;3829;50.798;4.358;2023-03-04T12:35:22;9.30;99.90
7576;DHT22;3829;50.798;4.358;2023-03-04T12:48:54;9.00;99.90
7576;DHT22;3829;50.798;4.358;2023-03-04T12:56:45;9.60;99.90
7576;DHT22;3829;50.798;4.358;2023-03-04T12:59:18;9.50;99.90
7576;DHT22;3829;50.798;4.358;2023-03-04T13:04:35;9.50;99.90
7576;DHT22;3829;50.798;4.358;2023-03-04T13:07:25;9.50;99.90
7576;DHT22;3829;50.798;4.358;2023-03-04T13:09:57;9.50;99.90
7576;DHT22;3829;50.798;4.358;2023-03-04T13:12:25;9.40;99.90
7576;DHT22;3829;50.798;4.358;2023-03-04T13:17:42;9.00;99.90
7576;DHT22;3829;50.798;4.358;2023-03-04T13:22:56;8.90;99.90
7576;DHT22;3829;50.798;4.358;2023-03-04T13:25:45;9.00;99.90
7576;DHT22;3829;50.798;4.358;2023-03-04T13:28:27;9.10;99.90
7576;DHT22;3829;50.798;4.358;2023-03-04T13:35:59;8.90;99.90
7576;DHT22;3829;50.798;4.358;2023-03-04T13:51:38;9.00;99.90
7576;DHT22;3829;50.798;4.358;2023-03-04T13:59:47;8.90;99.90
7576;DHT22;3829;50.798;4.358;2023-03-04T14:02:16;9.10;99.90
7576;DHT22;3829;50.798;4.358;2023-03-04T14:07:35;9.40;99.90
7576;DHT22;3829;50.798;4.358;2023-03-04T14:10:17;9.20;99.90
7576;DHT22;3829;50.798;4.358;2023-03-04T14:12:48;9.00;99.90
7576;DHT22;3829;50.798;4.358;2023-03-04T14:15:25;9.00;99.90
7576;DHT22;3829;50.798;4.358;2023-03-04T14:17:56;9.20;99.90
7576;DHT22;3829;50.798;4.358;2023-03-04T14:20:36;9.40;99.90
7576;DHT22;3829;50.798;4.358;2023-03-04T14:23:21;9.10;99.90
7576;DHT22;3829;50.798;4.358;2023-03-04T14:25:47;9.00;99.90
7576;DHT22;3829;50.798;4.358;2023-03-04T14:28:14;9.10;99.90
7576;DHT22;3829;50.798;4.358;2023-03-04T14:30:42;9.00;99.90
7576;DHT22;3829;50.798;4.358;2023-03-04T14:33:13;9.00;99.90
7576;DHT22;3829;50.798;4.358;2023-03-04T14:35:38;9.00;99.90
7576;DHT22;3829;50.798;4.358;2023-03-04T14:41:16;8.80;99.90
7576;DHT22;3829;50.798;4.358;2023-03-04T14:43:56;8.80;99.90
7576;DHT22;3829;50.798;4.358;2023-03-04T14:46:25;8.80;99.90
7576;DHT22;3829;50.798;4.358;2023-03-04T14:48:54;8.90;99.90
7576;DHT22;3829;50.798;4.358;2023-03-04T14:51:48;8.90;99.90
7576;DHT22;3829;50.798;4.358;2023-03-04T14:56:51;8.70;99.90
7576;DHT22;3829;50.798;4.358;2023-03-04T14:59:16;8.70;99.90
7576;DHT22;3829;50.798;4.358;2023-03-04T15:01:42;8.80;99.90
7576;DHT22;3829;50.798;4.358;2023-03-04T15:04:10;8.80;99.90
7576;DHT22;3829;50.798;4.358;2023-03-04T15:06:51;8.90;99.90
7576;DHT22;3829;50.798;4.358;2023-03-04T15:09:25;9.00;99.90
7576;DHT22;3829;50.798;4.358;2023-03-04T15:12:00;9.00;99.90
7576;DHT22;3829;50.798;4.358;2023-03-04T15:14:54;8.90;99.90
7576;DHT22;3829;50.798;4.358;2023-03-04T15:22:31;8.60;99.90
7576;DHT22;3829;50.798;4.358;2023-03-04T15:24:57;8.30;99.90
7576;DHT22;3829;50.798;4.358;2023-03-04T15:27:24;8.10;99.90
7576;DHT22;3829;50.798;4.358;2023-03-04T15:29:51;8.10;99.90
7576;DHT22;3829;50.798;4.358;2023-03-04T15:32:27;8.20;99.90
7576;DHT22;3829;50.798;4.358;2023-03-04T15:34:53;8.30;99.90
7576;DHT22;3829;50.798;4.358;2023-03-04T15:37:22;8.40;99.90
7576;DHT22;3829;50.798;4.358;2023-03-04T15:39:49;8.30;99.90
7576;DHT22;3829;50.798;4.358;2023-03-04T15:42:16;8.50;99.90
7576;DHT22;3829;50.798;4.358;2023-03-04T15:44:42;8.60;99.90
7576;DHT22;3829;50.798;4.358;2023-03-04T15:47:09;8.70;99.90
7576;DHT22;3829;50.798;4.358;2023-03-04T15:49:37;8.70;99.90
7576;DHT22;3829;50.798;4.358;2023-03-04T15:52:05;8.70;99.90
7576;DHT22;3829;50.798;4.358;2023-03-04T15:54:30;8.70;99.90
7576;DHT22;3829;50.798;4.358;2023-03-04T15:56:57;8.90;99.90
7576;DHT22;3829;50.798;4.358;2023-03-04T15:59:24;8.90;99.90
7576;DHT22;3829;50.798;4.358;2023-03-04T16:01:50;8.90;99.90
7576;DHT22;3829;50.798;4.358;2023-03-04T16:04:16;8.90;99.90
7576;DHT22;3829;50.798;4.358;2023-03-04T16:06:43;9.00;99.90
7576;DHT22;3829;50.798;4.358;2023-03-04T16:09:15;8.90;99.90
7576;DHT22;3829;50.798;4.358;2023-03-04T16:11:43;9.00;99.90
7576;DHT22;3829;50.798;4.358;2023-03-04T16:14:12;9.00;99.90
7576;DHT22;3829;50.798;4.358;2023-03-04T16:16:39;9.00;99.90
7576;DHT22;3829;50.798;4.358;2023-03-04T16:19:04;8.90;99.90
7576;DHT22;3829;50.798;4.358;2023-03-04T16:21:30;9.00;99.90
7576;DHT22;3829;50.798;4.358;2023-03-04T16:23:56;8.90;99.90
7576;DHT22;3829;50.798;4.358;2023-03-04T16:26:24;9.00;99.90
7576;DHT22;3829;50.798;4.358;2023-03-04T16:28:51;8.90;99.90
7576;DHT22;3829;50.798;4.358;2023-03-04T16:31:21;9.00;99.90
7576;DHT22;3829;50.798;4.358;2023-03-04T16:33:47;9.10;99.90
7576;DHT22;3829;50.798;4.358;2023-03-04T16:36:20;9.00;99.90
7576;DHT22;3829;50.798;4.358;2023-03-04T16:38:47;8.70;99.90
7576;DHT22;3829;50.798;4.358;2023-03-04T16:41:15;8.60;99.90
7576;DHT22;3829;50.798;4.358;2023-03-04T16:43:42;8.50;99.90
7576;DHT22;3829;50.798;4.358;2023-03-04T16:46:09;8.40;99.90
7576;DHT22;3829;50.798;4.358;2023-03-04T16:48:35;8.50;99.90
7576;DHT22;3829;50.798;4.358;2023-03-04T16:51:03;8.50;99.90
7576;DHT22;3829;50.798;4.358;2023-03-04T16:53:35;8.50;99.90
7576;DHT22;3829;50.798;4.358;2023-03-04T16:56:05;8.50;99.90
7576;DHT22;3829;50.798;4.358;2023-03-04T16:58:32;8.50;99.90
7576;DHT22;3829;50.798;4.358;2023-03-04T17:00:57;8.50;99.90
7576;DHT22;3829;50.798;4.358;2023-03-04T17:03:23;8.50;99.90
7576;DHT22;3829;50.798;4.358;2023-03-04T17:05:49;8.50;99.90
7576;DHT22;3829;50.798;4.358;2023-03-04T17:08:17;8.50;99.90
7576;DHT22;3829;50.798;4.358;2023-03-04T17:10:43;8.30;99.90
7576;DHT22;3829;50.798;4.358;2023-03-04T17:13:08;8.20;99.90
7576;DHT22;3829;50.798;4.358;2023-03-04T17:15:34;8.20;99.90
7576;DHT22;3829;50.798;4.358;2023-03-04T17:18:00;8.30;99.90
7576;DHT22;3829;50.798;4.358;2023-03-04T17:20:25;8.20;99.90
7576;DHT22;3829;50.798;4.358;2023-03-04T17:22:52;8.20;99.90
7576;DHT22;3829;50.798;4.358;2023-03-04T17:25:17;8.20;99.90
7576;DHT22;3829;50.798;4.358;2023-03-04T17:27:43;8.20;99.90
7576;DHT22;3829;50.798;4.358;2023-03-04T17:30:10;8.10;99.90
7576;DHT22;3829;50.798;4.358;2023-03-04T17:32:37;8.00;99.90
7576;DHT22;3829;50.798;4.358;2023-03-04T17:35:05;7.90;99.90
7576;DHT22;3829;50.798;4.358;2023-03-04T17:37:31;8.00;99.90
7576;DHT22;3829;50.798;4.358;2023-03-04T17:39:56;8.00;99.90
7576;DHT22;3829;50.798;4.358;2023-03-04T17:42:22;8.00;99.90
7576;DHT22;3829;50.798;4.358;2023-03-04T17:44:48;8.00;99.90
7576;DHT22;3829;50.798;4.358;2023-03-04T17:47:13;8.00;99.90
7576;DHT22;3829;50.798;4.358;2023-03-04T17:49:40;8.10;99.90
7576;DHT22;3829;50.798;4.358;2023-03-04T17:52:05;8.00;99.90
7576;DHT22;3829;50.798;4.358;2023-03-04T17:54:31;8.00;99.90
7576;DHT22;3829;50.798;4.358;2023-03-04T17:56:57;8.10;99.90
7576;DHT22;3829;50.798;4.358;2023-03-04T17:59:22;7.90;99.90
7576;DHT22;3829;50.798;4.358;2023-03-04T18:01:48;8.10;99.90
7576;DHT22;3829;50.798;4.358;2023-03-04T18:04:14;7.90;99.90
7576;DHT22;3829;50.798;4.358;2023-03-04T18:06:40;7.90;99.90
7576;DHT22;3829;50.798;4.358;2023-03-04T18:09:06;7.70;99.90
7576;DHT22;3829;50.798;4.358;2023-03-04T18:11:35;7.70;99.90
7576;DHT22;3829;50.798;4.358;2023-03-04T18:14:01;7.70;99.90
7576;DHT22;3829;50.798;4.358;2023-03-04T18:16:27;7.80;99.90